Argillite, Kentucky
Current Conditions -  °F | °C
As of 6:35 PM on Monday 22 Dec 2014 (Local Time) from KDWU Reporting Station
Broken Clouds Broken Clouds  
Wind Chill:   Ceiling: 10000
Heat Index:   Visibility: 10mi
Dew Point:   Wind: 9mph
Humidity: 81%   Direction: 120°ESE
Pressure: 29.82"   Gusts: NA
Location:  38.51°N, 82.87°W
Report Text: KDWU 222335Z AUTO 12008KT 10SM BKN100 06/03 A2982 RMK AO1
Loading
Personal Weather Stations






























Interactive Weather Map New forecast layout! Learn more

10-Day Weather Forecast

Advertisements
Track Severe Weather on mobile